Pagrindinis puslapis
METAR-TAF:

METAR-TAF

Oro uostai :

Georgetown Municipal Airport

Georgetown, Teksasas, Jungtinės Amerikos Valstijos

platuma: 30-41N, ilguma: 097-41W, Aukštis: 240 m

Dabartinis oras

Ataskaita buvo paskelbta 27 minutes, ne 08:56 UTC
Vėjas 3 kt iš Vakarų
Temperatūra 20°C
Drėgmė 94%
Slėgis 1019 hPa
Matomumas: 16.1 km
Giedras dangus

METAR: KGTU 290856Z AUTO 28003KT 10SM CLR 20/19 A3008 RMK AO2 SLP179 T02000189 55000

Laikas: 04:23 (09:23 UTC)


TAF: trūkstamas

Orai ataskaitas ir orų prognozės (METAR, TAF).

turimą stotys yra geltonos ir raudonos taškus žemėlapyje.

Perkelti pele per norėdami pamatyti stoties vardą.

Tada spustelėkite, norėdami matyti oro stebėjimo ir prognozės.

Norėdami pakeisti žemėlapį: spustelėkite ant žalios mygtukų su juodo kryžiaus žemyn,; žalią mygtuką su brūkšneliu, jei norite nutolinti; arba žalių rodyklių gretimoms žemėlapius.


METAR-TAF: